createdAt,value
2023-03-11T00:01:33.161Z,1.10
2023-03-11T00:04:08.334Z,1.20
2023-03-11T00:06:43.707Z,1.10
2023-03-11T00:09:18.192Z,0.90
2023-03-11T00:11:52.908Z,1.10
2023-03-11T00:14:27.254Z,1.20
2023-03-11T00:17:01.685Z,1.10
2023-03-11T00:19:37.475Z,1.00
2023-03-11T00:22:16.835Z,1.10
2023-03-11T00:24:55.834Z,0.90
2023-03-11T00:27:36.900Z,1.30
2023-03-11T00:30:24.860Z,1.00
2023-03-11T00:33:11.402Z,1.00
2023-03-11T00:35:55.579Z,1.20
2023-03-11T00:38:35.922Z,1.10
2023-03-11T00:41:11.072Z,1.00
2023-03-11T00:43:46.902Z,1.00
2023-03-11T00:46:21.764Z,0.90
2023-03-11T00:48:56.893Z,0.90
2023-03-11T00:51:33.839Z,0.90
2023-03-11T00:54:08.688Z,0.80
2023-03-11T00:56:43.089Z,1.00
2023-03-11T00:59:17.990Z,1.00
2023-03-11T01:01:52.727Z,1.10
2023-03-11T01:04:29.459Z,0.60
2023-03-11T01:07:03.743Z,0.70
2023-03-11T01:09:38.324Z,0.80
2023-03-11T01:12:12.630Z,0.60
2023-03-11T01:14:47.130Z,0.60
2023-03-11T01:17:22.782Z,0.70
2023-03-11T01:19:57.021Z,0.90
2023-03-11T01:22:31.333Z,0.60
2023-03-11T01:25:06.142Z,0.60
2023-03-11T01:27:40.437Z,0.30
2023-03-11T01:30:20.983Z,0.30
2023-03-11T01:32:57.418Z,0.50
2023-03-11T01:35:34.255Z,0.30
2023-03-11T01:38:08.457Z,0.30
2023-03-11T01:40:44.763Z,0.30
2023-03-11T01:43:54.690Z,0.20
2023-03-11T01:46:37.875Z,0.30
2023-03-11T01:49:17.287Z,0.30
2023-03-11T01:51:56.023Z,0.30
2023-03-11T01:54:35.395Z,0.30
2023-03-11T01:57:16.413Z,0.40
2023-03-11T01:59:57.208Z,0.30
2023-03-11T02:02:38.324Z,0.30
2023-03-11T02:05:13.384Z,0.30
2023-03-11T02:07:48.053Z,0.30
2023-03-11T02:10:24.139Z,0.30
2023-03-11T02:12:58.475Z,0.20
2023-03-11T02:15:35.244Z,0.20
2023-03-11T02:18:14.705Z,0.30
2023-03-11T02:20:58.808Z,0.30
2023-03-11T02:23:43.825Z,0.30
2023-03-11T02:26:26.215Z,0.40
2023-03-11T02:29:05.411Z,0.30
2023-03-11T02:31:43.315Z,0.20
2023-03-11T02:34:27.705Z,0.20
2023-03-11T02:37:02.688Z,0.50
2023-03-11T02:39:39.740Z,0.50
2023-03-11T02:42:19.885Z,0.30
2023-03-11T02:45:02.508Z,0.40
2023-03-11T02:47:39.383Z,0.40
2023-03-11T02:50:18.914Z,0.40
2023-03-11T02:52:54.592Z,0.30
2023-03-11T02:55:29.940Z,0.40
2023-03-11T02:58:04.647Z,0.30
2023-03-11T03:00:39.290Z,0.40
2023-03-11T03:03:14.521Z,0.20
2023-03-11T03:05:49.317Z,0.40
2023-03-11T03:08:23.602Z,0.40
2023-03-11T03:11:00.184Z,0.40
2023-03-11T03:13:34.519Z,0.30
2023-03-11T03:16:09.445Z,0.60
2023-03-11T03:18:44.062Z,0.20
2023-03-11T03:21:18.592Z,0.30
2023-03-11T03:23:53.288Z,0.40
2023-03-11T03:26:27.558Z,0.50
2023-03-11T03:29:01.717Z,0.50
2023-03-11T03:31:36.068Z,0.50
2023-03-11T03:34:11.329Z,0.60
2023-03-11T03:36:45.666Z,0.70
2023-03-11T03:39:20.286Z,0.40
2023-03-11T03:41:55.939Z,0.30
2023-03-11T03:44:31.055Z,0.30
2023-03-11T03:47:07.716Z,0.30
2023-03-11T03:49:42.383Z,0.70
2023-03-11T03:52:16.785Z,0.20
2023-03-11T03:54:51.133Z,0.20
2023-03-11T03:57:25.597Z,0.30
2023-03-11T04:00:00.035Z,0.20
2023-03-11T04:02:35.992Z,0.20
2023-03-11T04:05:12.261Z,0.20
2023-03-11T04:07:47.027Z,0.20
2023-03-11T04:10:21.968Z,0.40
2023-03-11T04:12:56.938Z,0.30
2023-03-11T04:15:32.116Z,0.20
2023-03-11T04:18:06.567Z,0.20
2023-03-11T04:20:43.840Z,0.30
2023-03-11T04:23:18.402Z,0.30
2023-03-11T04:25:52.645Z,0.30
2023-03-11T04:28:27.575Z,0.30
2023-03-11T04:31:02.340Z,0.30
2023-03-11T04:33:38.334Z,0.30
2023-03-11T04:36:14.640Z,0.20
2023-03-11T04:38:49.040Z,0.30
2023-03-11T04:41:24.196Z,0.30
2023-03-11T04:43:59.950Z,0.40
2023-03-11T04:46:34.187Z,0.20
2023-03-11T04:49:10.024Z,0.40
2023-03-11T04:51:45.332Z,0.40
2023-03-11T04:54:20.588Z,0.40
2023-03-11T04:56:54.849Z,0.30
2023-03-11T04:59:29.726Z,0.30
2023-03-11T05:02:04.622Z,0.40
2023-03-11T05:04:39.438Z,0.30
2023-03-11T05:07:13.897Z,0.30
2023-03-11T05:09:48.247Z,0.40
2023-03-11T05:12:22.778Z,0.40
2023-03-11T05:14:58.933Z,0.50
2023-03-11T05:17:33.179Z,0.30
2023-03-11T05:20:09.464Z,0.30
2023-03-11T05:22:43.989Z,0.30
2023-03-11T05:25:18.727Z,0.50
2023-03-11T05:27:53.557Z,0.40
2023-03-11T05:30:28.259Z,0.60
2023-03-11T05:33:04.423Z,0.60
2023-03-11T05:35:39.193Z,0.70
2023-03-11T05:38:13.882Z,0.60
2023-03-11T05:40:48.466Z,0.70
2023-03-11T05:43:23.057Z,0.70
2023-03-11T05:46:00.989Z,0.50
2023-03-11T05:48:36.437Z,0.80
2023-03-11T05:51:15.039Z,0.80
2023-03-11T05:53:51.929Z,0.90
2023-03-11T05:56:32.617Z,0.70
2023-03-11T05:59:07.367Z,0.80
2023-03-11T06:01:43.217Z,1.00
2023-03-11T06:04:18.106Z,0.60
2023-03-11T06:06:53.035Z,1.00
2023-03-11T06:09:28.402Z,0.80
2023-03-11T06:12:04.686Z,0.70
2023-03-11T06:14:48.587Z,0.60
2023-03-11T06:17:43.552Z,0.50
2023-03-11T06:20:26.025Z,0.80
2023-03-11T06:23:03.490Z,0.60
2023-03-11T06:25:46.563Z,0.60
2023-03-11T06:28:33.548Z,0.40
2023-03-11T06:31:22.898Z,0.50
2023-03-11T06:34:06.391Z,0.60
2023-03-11T06:36:44.288Z,0.50
2023-03-11T06:39:30.977Z,0.50
2023-03-11T06:42:14.134Z,0.60
2023-03-11T06:44:50.072Z,1.00
2023-03-11T06:47:24.564Z,0.40
2023-03-11T06:49:59.041Z,1.00
2023-03-11T06:52:34.191Z,1.00
2023-03-11T06:55:10.201Z,0.90
2023-03-11T06:57:45.938Z,0.80
2023-03-11T07:00:21.896Z,0.90
2023-03-11T07:02:59.935Z,0.80
2023-03-11T07:05:35.087Z,1.00
2023-03-11T07:08:15.236Z,0.90
2023-03-11T07:11:07.374Z,0.90
2023-03-11T07:13:42.208Z,0.90
2023-03-11T07:16:19.984Z,1.20
2023-03-11T07:18:56.729Z,1.30
2023-03-11T07:21:32.954Z,1.20
2023-03-11T07:24:08.805Z,0.90
2023-03-11T07:26:44.619Z,1.20
2023-03-11T07:29:20.987Z,1.30
2023-03-11T07:31:55.515Z,0.90
2023-03-11T07:34:29.796Z,1.30
2023-03-11T07:37:05.160Z,0.90
2023-03-11T07:39:40.480Z,1.40
2023-03-11T07:42:15.021Z,1.10
2023-03-11T07:44:51.582Z,1.00
2023-03-11T07:47:25.965Z,1.30
2023-03-11T07:50:02.544Z,1.40
2023-03-11T07:52:37.376Z,1.50
2023-03-11T07:55:12.789Z,1.40
2023-03-11T07:57:47.887Z,1.10
2023-03-11T08:00:24.451Z,1.60
2023-03-11T08:02:59.070Z,1.50
2023-03-11T08:05:36.464Z,1.50
2023-03-11T08:08:10.747Z,1.70
2023-03-11T08:10:45.256Z,1.50
2023-03-11T08:13:19.787Z,1.90
2023-03-11T08:15:53.972Z,2.20
2023-03-11T08:18:28.230Z,2.10
2023-03-11T08:21:07.711Z,2.00
2023-03-11T08:23:43.549Z,1.90
2023-03-11T08:26:21.689Z,1.90
2023-03-11T08:28:56.122Z,1.70
2023-03-11T08:31:33.299Z,2.10
2023-03-11T08:34:12.026Z,1.80
2023-03-11T08:36:46.648Z,2.10
2023-03-11T08:39:21.443Z,2.10
2023-03-11T08:41:55.999Z,1.90
2023-03-11T08:44:30.551Z,2.00
2023-03-11T08:47:05.276Z,2.00
2023-03-11T08:49:40.334Z,2.00
2023-03-11T08:52:16.076Z,2.00
2023-03-11T08:54:51.255Z,1.80
2023-03-11T08:57:25.915Z,1.60
2023-03-11T09:00:00.265Z,1.70
2023-03-11T09:02:35.188Z,1.80
2023-03-11T09:05:12.072Z,1.60
2023-03-11T09:07:46.740Z,1.50
2023-03-11T09:10:21.606Z,1.60
2023-03-11T09:12:56.140Z,1.80
2023-03-11T09:15:30.780Z,6.30
2023-03-11T09:18:05.448Z,2.20
2023-03-11T09:20:43.020Z,1.30
2023-03-11T09:23:20.969Z,1.10
2023-03-11T09:25:55.604Z,1.90
2023-03-11T09:28:30.102Z,1.50
2023-03-11T09:31:07.724Z,1.60
2023-03-11T09:33:47.043Z,1.40
2023-03-11T09:36:23.285Z,1.70
2023-03-11T09:38:57.476Z,1.50
2023-03-11T09:41:57.982Z,1.70
2023-03-11T09:44:42.893Z,1.60
2023-03-11T09:47:48.743Z,2.80
2023-03-11T09:50:36.763Z,3.50
2023-03-11T09:53:37.746Z,6.30
2023-03-11T09:56:17.087Z,4.80
2023-03-11T09:58:54.104Z,1.50
2023-03-11T10:01:33.750Z,1.70
2023-03-11T10:04:17.426Z,1.90
2023-03-11T10:06:53.120Z,1.20
2023-03-11T10:09:40.471Z,1.50
2023-03-11T10:12:41.413Z,1.80
2023-03-11T10:15:33.053Z,1.80
2023-03-11T10:18:48.855Z,1.50
2023-03-11T10:21:45.516Z,1.10
2023-03-11T10:24:45.809Z,1.70
2023-03-11T10:27:27.492Z,1.80
2023-03-11T10:30:11.445Z,1.40
2023-03-11T10:32:51.230Z,4.80
2023-03-11T10:35:30.833Z,2.40
2023-03-11T10:38:14.484Z,2.20
2023-03-11T10:40:52.111Z,1.50
2023-03-11T10:43:34.823Z,1.70
2023-03-11T10:46:28.221Z,2.60
2023-03-11T10:49:02.610Z,1.80
2023-03-11T10:51:39.946Z,1.70
2023-03-11T10:54:29.541Z,1.70
2023-03-11T10:57:07.712Z,1.60
2023-03-11T10:59:52.300Z,1.80
2023-03-11T11:02:33.607Z,1.50
2023-03-11T11:05:29.897Z,2.10
2023-03-11T11:08:16.115Z,1.30
2023-03-11T11:10:59.302Z,2.30
2023-03-11T11:13:35.623Z,1.50
2023-03-11T11:16:21.544Z,1.70
2023-03-11T11:19:05.290Z,1.70
2023-03-11T11:21:48.835Z,1.90
2023-03-11T11:24:29.046Z,2.20
2023-03-11T11:27:21.172Z,2.50
2023-03-11T11:30:19.077Z,2.40
2023-03-11T11:32:55.767Z,2.20
2023-03-11T11:35:30.160Z,2.30
2023-03-11T11:38:15.446Z,1.80
2023-03-11T11:40:50.784Z,1.70
2023-03-11T11:43:48.029Z,2.20
2023-03-11T11:46:36.711Z,2.10
2023-03-11T11:49:23.299Z,2.30
2023-03-11T11:52:05.450Z,1.70
2023-03-11T11:54:50.718Z,1.90
2023-03-11T11:57:27.052Z,1.70
2023-03-11T12:00:03.165Z,2.20
2023-03-11T12:03:02.502Z,1.70
2023-03-11T12:05:53.011Z,2.00
2023-03-11T12:08:40.262Z,1.70
2023-03-11T12:11:26.113Z,2.00
2023-03-11T12:14:12.427Z,1.80
2023-03-11T12:16:58.037Z,1.90
2023-03-11T12:19:50.333Z,1.60
2023-03-11T12:22:53.754Z,2.20
2023-03-11T12:25:38.046Z,2.20
2023-03-11T12:28:25.124Z,2.70
2023-03-11T12:31:04.605Z,2.70
2023-03-11T12:33:44.259Z,2.50
2023-03-11T12:36:35.180Z,2.20
2023-03-11T12:39:23.701Z,2.40
2023-03-11T12:42:23.049Z,1.40
2023-03-11T12:45:17.187Z,2.10
2023-03-11T12:48:33.072Z,1.90
2023-03-11T12:51:07.475Z,2.10
2023-03-11T12:53:50.766Z,2.10
2023-03-11T12:56:37.992Z,2.00
2023-03-11T12:59:53.418Z,1.70
2023-03-11T13:02:54.265Z,2.00
2023-03-11T13:05:43.405Z,2.50
2023-03-11T13:08:21.804Z,1.40
2023-03-11T13:10:57.726Z,2.10
2023-03-11T13:13:43.339Z,2.20
2023-03-11T13:16:42.561Z,1.90
2023-03-11T13:19:55.942Z,1.90
2023-03-11T13:23:25.408Z,1.80
2023-03-11T13:26:31.585Z,2.30
2023-03-11T13:29:45.392Z,2.40
2023-03-11T13:32:53.046Z,1.90
2023-03-11T13:35:46.116Z,2.30
2023-03-11T13:38:57.444Z,1.60
2023-03-11T13:41:39.580Z,1.60
2023-03-11T13:44:34.865Z,1.70
2023-03-11T13:47:15.696Z,1.60
2023-03-11T13:49:56.767Z,1.80
2023-03-11T13:52:36.370Z,2.20
2023-03-11T13:55:21.182Z,1.50
2023-03-11T13:57:58.314Z,1.40
2023-03-11T14:00:34.122Z,1.50
2023-03-11T14:03:15.257Z,2.10
2023-03-11T14:05:52.682Z,1.40
2023-03-11T14:08:31.793Z,2.80
2023-03-11T14:11:16.847Z,2.90
2023-03-11T14:13:54.183Z,2.10
2023-03-11T14:16:36.249Z,2.30
2023-03-11T14:19:18.482Z,2.40
2023-03-11T14:21:55.502Z,2.00
2023-03-11T14:24:32.795Z,2.10
2023-03-11T14:27:11.296Z,2.10
2023-03-11T14:29:48.287Z,1.80
2023-03-11T14:32:32.346Z,2.90
2023-03-11T14:35:22.481Z,2.30
2023-03-11T14:37:57.177Z,1.70
2023-03-11T14:40:35.315Z,1.90
2023-03-11T14:43:13.173Z,1.90
2023-03-11T14:45:48.537Z,2.20
2023-03-11T14:48:28.987Z,2.50
2023-03-11T14:51:07.418Z,1.50
2023-03-11T14:53:47.983Z,2.70
2023-03-11T14:56:25.983Z,2.70
2023-03-11T14:59:12.661Z,2.50
2023-03-11T15:01:49.573Z,2.10
2023-03-11T15:04:33.888Z,2.10
2023-03-11T15:07:09.171Z,2.40
2023-03-11T15:09:45.896Z,2.60
2023-03-11T15:12:38.848Z,3.30
2023-03-11T15:15:29.244Z,2.00
2023-03-11T15:18:05.694Z,2.20
2023-03-11T15:20:41.095Z,2.70
2023-03-11T15:23:25.749Z,2.40
2023-03-11T15:26:00.444Z,2.80
2023-03-11T15:28:37.437Z,2.30
2023-03-11T15:31:31.692Z,2.20
2023-03-11T15:34:32.162Z,2.80
2023-03-11T15:37:26.786Z,2.40
2023-03-11T15:40:27.947Z,2.60
2023-03-11T15:43:28.183Z,3.60
2023-03-11T15:46:05.171Z,2.70
2023-03-11T15:48:39.568Z,2.60
2023-03-11T15:51:24.258Z,2.60
2023-03-11T15:53:58.552Z,2.20
2023-03-11T15:56:33.495Z,3.10
2023-03-11T15:59:07.861Z,2.70
2023-03-11T16:01:42.128Z,2.20
2023-03-11T16:04:22.253Z,3.10
2023-03-11T16:07:07.387Z,2.40
2023-03-11T16:09:42.899Z,3.20
2023-03-11T16:12:23.304Z,2.60
2023-03-11T16:14:57.566Z,2.00
2023-03-11T16:17:48.529Z,2.60
2023-03-11T16:20:26.373Z,3.20
2023-03-11T16:23:02.612Z,3.10
2023-03-11T16:25:41.788Z,2.50
2023-03-11T16:28:18.472Z,2.30
2023-03-11T16:30:54.423Z,2.00
2023-03-11T16:33:28.727Z,2.40
2023-03-11T16:36:04.041Z,1.90
2023-03-11T16:38:49.651Z,1.60
2023-03-11T16:41:27.995Z,2.00
2023-03-11T16:44:02.416Z,2.40
2023-03-11T16:46:36.746Z,2.50
2023-03-11T16:49:11.264Z,2.50
2023-03-11T16:51:45.571Z,2.00
2023-03-11T16:54:20.042Z,2.80
2023-03-11T16:56:54.493Z,2.00
2023-03-11T16:59:29.100Z,1.70
2023-03-11T17:02:03.432Z,2.10
2023-03-11T17:04:38.557Z,2.40
2023-03-11T17:07:13.507Z,1.90
2023-03-11T17:09:47.868Z,3.60
2023-03-11T17:12:23.217Z,2.50
2023-03-11T17:14:58.002Z,2.90
2023-03-11T17:17:32.445Z,2.50
2023-03-11T17:20:09.124Z,2.90
2023-03-11T17:22:43.555Z,2.70
2023-03-11T17:25:18.130Z,3.20
2023-03-11T17:27:54.384Z,2.80
2023-03-11T17:30:36.785Z,2.40
2023-03-11T17:33:11.605Z,2.60
2023-03-11T17:35:46.375Z,2.20
2023-03-11T17:38:20.980Z,2.30
2023-03-11T17:40:55.342Z,2.00
2023-03-11T17:43:29.763Z,1.70
2023-03-11T17:46:07.388Z,2.00
2023-03-11T17:48:41.826Z,2.60
2023-03-11T17:51:19.238Z,2.40
2023-03-11T17:53:54.802Z,1.60
2023-03-11T17:56:29.481Z,1.60
2023-03-11T17:59:03.849Z,2.10
2023-03-11T18:01:38.385Z,1.70
2023-03-11T18:04:12.757Z,2.20
2023-03-11T18:06:47.236Z,2.00
2023-03-11T18:09:21.873Z,1.90
2023-03-11T18:11:56.200Z,2.30
2023-03-11T18:14:30.680Z,2.90
2023-03-11T18:17:05.092Z,2.40
2023-03-11T18:19:40.294Z,2.60
2023-03-11T18:22:15.639Z,2.30
2023-03-11T18:24:49.870Z,2.30
2023-03-11T18:27:24.718Z,2.20
2023-03-11T18:30:00.430Z,2.70
2023-03-11T18:32:35.123Z,2.60
2023-03-11T18:35:11.517Z,3.20
2023-03-11T18:37:46.863Z,2.70
2023-03-11T18:40:21.869Z,2.80
2023-03-11T18:42:58.562Z,3.30
2023-03-11T18:45:32.980Z,2.80
2023-03-11T18:48:07.769Z,2.90
2023-03-11T18:50:42.321Z,3.20
2023-03-11T18:53:16.947Z,2.90
2023-03-11T18:55:51.542Z,3.40
2023-03-11T18:58:25.948Z,3.60
2023-03-11T19:01:07.364Z,4.20
2023-03-11T19:03:41.680Z,3.70
2023-03-11T19:06:17.939Z,4.60
2023-03-11T19:08:52.531Z,4.30
2023-03-11T19:11:27.833Z,5.20
2023-03-11T19:14:02.347Z,4.30
2023-03-11T19:16:36.636Z,4.60
2023-03-11T19:19:12.031Z,5.50
2023-03-11T19:21:47.892Z,6.20
2023-03-11T19:24:22.355Z,5.80
2023-03-11T19:26:56.688Z,5.90
2023-03-11T19:29:30.973Z,5.80
2023-03-11T19:32:05.573Z,5.90
2023-03-11T19:34:40.442Z,6.00
2023-03-11T19:37:17.223Z,5.50
2023-03-11T19:39:51.707Z,6.00
2023-03-11T19:42:26.013Z,6.10
2023-03-11T19:45:00.451Z,6.20
2023-03-11T19:47:35.040Z,6.80
2023-03-11T19:50:11.938Z,5.30
2023-03-11T19:52:46.441Z,6.70
2023-03-11T19:55:21.216Z,7.30
2023-03-11T19:57:55.889Z,6.50
2023-03-11T20:00:30.664Z,6.30
2023-03-11T20:03:05.183Z,6.70
2023-03-11T20:05:42.418Z,6.90
2023-03-11T20:08:20.096Z,6.80
2023-03-11T20:11:01.799Z,6.60
2023-03-11T20:13:37.001Z,6.50
2023-03-11T20:16:18.364Z,5.80
2023-03-11T20:18:55.226Z,4.00
2023-03-11T20:23:49.990Z,6.40
2023-03-11T20:26:25.108Z,7.00
2023-03-11T20:29:01.406Z,5.90
2023-03-11T20:31:38.058Z,5.90
2023-03-11T20:34:16.499Z,5.90
2023-03-11T20:36:52.532Z,6.40
2023-03-11T20:39:28.292Z,6.10
2023-03-11T20:42:06.254Z,6.70
2023-03-11T20:44:41.223Z,5.90
2023-03-11T20:47:15.673Z,6.20
2023-03-11T20:49:52.167Z,7.00
2023-03-11T20:52:27.270Z,6.80
2023-03-11T20:55:01.567Z,6.20
2023-03-11T20:57:36.061Z,6.50
2023-03-11T21:00:15.768Z,5.90
2023-03-11T21:02:50.300Z,6.50
2023-03-11T21:05:25.212Z,6.60
2023-03-11T21:07:59.482Z,5.30
2023-03-11T21:10:36.219Z,5.10
2023-03-11T21:13:11.293Z,6.70
2023-03-11T21:15:46.209Z,7.00
2023-03-11T21:18:20.875Z,5.00
2023-03-11T21:20:55.480Z,6.00
2023-03-11T21:23:29.971Z,6.00
2023-03-11T21:26:06.743Z,6.10
2023-03-11T21:28:46.419Z,6.20
2023-03-11T21:31:27.823Z,4.60
2023-03-11T21:34:03.971Z,6.50
2023-03-11T21:36:38.726Z,6.70
2023-03-11T21:39:14.700Z,6.20
2023-03-11T21:41:49.005Z,5.80
2023-03-11T21:44:23.872Z,5.90
2023-03-11T21:46:58.347Z,5.90
2023-03-11T21:49:32.903Z,7.10
2023-03-11T21:52:10.985Z,5.70
2023-03-11T21:54:45.382Z,5.30
2023-03-11T21:57:19.730Z,5.10
2023-03-11T21:59:58.153Z,6.90
2023-03-11T22:02:40.421Z,7.20
2023-03-11T22:05:29.647Z,5.60
2023-03-11T22:08:05.056Z,6.60
2023-03-11T22:10:40.182Z,6.80
2023-03-11T22:13:14.555Z,7.40
2023-03-11T22:15:49.122Z,7.70
2023-03-11T22:18:23.483Z,7.90
2023-03-11T22:21:00.948Z,9.00
2023-03-11T22:23:36.230Z,7.30
2023-03-11T22:26:10.777Z,6.60
2023-03-11T22:28:45.188Z,5.30
2023-03-11T22:31:20.411Z,5.60
2023-03-11T22:33:55.479Z,7.00
2023-03-11T22:36:30.175Z,6.60
2023-03-11T22:39:04.675Z,5.00
2023-03-11T22:41:39.234Z,5.20
2023-03-11T22:44:13.847Z,4.90
2023-03-11T22:46:48.336Z,5.60
2023-03-11T22:49:23.117Z,4.00
2023-03-11T22:51:57.420Z,4.00
2023-03-11T22:54:31.946Z,4.70
2023-03-11T22:58:08.975Z,3.90
2023-03-11T23:00:44.751Z,5.30
2023-03-11T23:03:19.231Z,5.90
2023-03-11T23:05:53.464Z,7.00
2023-03-11T23:08:28.056Z,5.80
2023-03-11T23:11:08.495Z,5.50
2023-03-11T23:13:44.661Z,6.20
2023-03-11T23:16:21.645Z,7.00
2023-03-11T23:18:59.072Z,6.70
2023-03-11T23:21:35.860Z,6.50
2023-03-11T23:24:12.297Z,5.80
2023-03-11T23:26:46.663Z,5.90
2023-03-11T23:29:21.608Z,5.50
2023-03-11T23:31:55.796Z,3.70
2023-03-11T23:34:30.683Z,5.40
2023-03-11T23:37:05.597Z,3.90
2023-03-11T23:39:40.029Z,4.00
2023-03-11T23:42:25.036Z,5.60
2023-03-11T23:45:00.052Z,4.60
2023-03-11T23:47:34.179Z,4.70
2023-03-11T23:50:10.255Z,6.50
2023-03-11T23:52:44.724Z,2.90
2023-03-11T23:55:19.378Z,5.70
2023-03-11T23:57:53.457Z,6.60
